sensor_id;sensor_type;location;lat;lon;timestamp;P1;durP1;ratioP1;P2;durP2;ratioP2
18905;SDS011;9585;51.018;4.282;2023-02-19T00:14:16;10.10;;;7.45;;
18905;SDS011;9585;51.018;4.282;2023-02-19T00:16:45;10.52;;;8.07;;
18905;SDS011;9585;51.018;4.282;2023-02-19T00:19:15;12.20;;;7.40;;
18905;SDS011;9585;51.018;4.282;2023-02-19T00:21:44;10.68;;;7.35;;
18905;SDS011;9585;51.018;4.282;2023-02-19T00:24:12;12.00;;;7.18;;
18905;SDS011;9585;51.018;4.282;2023-02-19T00:26:40;9.65;;;7.18;;
18905;SDS011;9585;51.018;4.282;2023-02-19T00:29:11;11.38;;;6.97;;
18905;SDS011;9585;51.018;4.282;2023-02-19T00:31:41;12.32;;;7.60;;
18905;SDS011;9585;51.018;4.282;2023-02-19T00:34:09;11.32;;;7.28;;
18905;SDS011;9585;51.018;4.282;2023-02-19T00:36:39;10.35;;;7.32;;
18905;SDS011;9585;51.018;4.282;2023-02-19T00:39:07;9.45;;;7.47;;
18905;SDS011;9585;51.018;4.282;2023-02-19T00:41:39;10.45;;;7.25;;
18905;SDS011;9585;51.018;4.282;2023-02-19T00:44:07;11.98;;;7.75;;
18905;SDS011;9585;51.018;4.282;2023-02-19T00:46:36;11.35;;;7.03;;
18905;SDS011;9585;51.018;4.282;2023-02-19T00:49:07;12.63;;;7.53;;
18905;SDS011;9585;51.018;4.282;2023-02-19T00:51:39;11.18;;;7.40;;
18905;SDS011;9585;51.018;4.282;2023-02-19T00:54:06;9.80;;;7.60;;
18905;SDS011;9585;51.018;4.282;2023-02-19T00:56:33;10.15;;;6.85;;
18905;SDS011;9585;51.018;4.282;2023-02-19T00:59:04;10.77;;;6.93;;
18905;SDS011;9585;51.018;4.282;2023-02-19T01:01:31;8.88;;;6.70;;
18905;SDS011;9585;51.018;4.282;2023-02-19T01:03:59;10.77;;;6.95;;
18905;SDS011;9585;51.018;4.282;2023-02-19T01:06:27;10.07;;;6.88;;
18905;SDS011;9585;51.018;4.282;2023-02-19T01:08:56;11.30;;;7.05;;
18905;SDS011;9585;51.018;4.282;2023-02-19T01:11:24;9.10;;;6.22;;
18905;SDS011;9585;51.018;4.282;2023-02-19T01:13:51;8.63;;;6.10;;
18905;SDS011;9585;51.018;4.282;2023-02-19T01:16:22;7.95;;;5.82;;
18905;SDS011;9585;51.018;4.282;2023-02-19T01:18:50;10.63;;;6.00;;
18905;SDS011;9585;51.018;4.282;2023-02-19T01:21:18;9.20;;;5.80;;
18905;SDS011;9585;51.018;4.282;2023-02-19T01:23:49;8.77;;;5.18;;
18905;SDS011;9585;51.018;4.282;2023-02-19T01:26:19;8.95;;;5.03;;
18905;SDS011;9585;51.018;4.282;2023-02-19T01:28:49;10.30;;;5.07;;
18905;SDS011;9585;51.018;4.282;2023-02-19T01:31:17;8.00;;;4.55;;
18905;SDS011;9585;51.018;4.282;2023-02-19T01:33:48;10.18;;;4.35;;
18905;SDS011;9585;51.018;4.282;2023-02-19T01:36:17;7.22;;;3.90;;
18905;SDS011;9585;51.018;4.282;2023-02-19T01:38:44;9.27;;;3.95;;
18905;SDS011;9585;51.018;4.282;2023-02-19T01:41:14;7.38;;;3.60;;
18905;SDS011;9585;51.018;4.282;2023-02-19T01:43:54;5.93;;;3.58;;
18905;SDS011;9585;51.018;4.282;2023-02-19T01:46:24;6.88;;;3.42;;
18905;SDS011;9585;51.018;4.282;2023-02-19T01:48:52;5.68;;;3.22;;
18905;SDS011;9585;51.018;4.282;2023-02-19T01:51:21;6.78;;;3.28;;
18905;SDS011;9585;51.018;4.282;2023-02-19T01:53:49;9.93;;;3.45;;
18905;SDS011;9585;51.018;4.282;2023-02-19T01:56:22;10.13;;;2.85;;
18905;SDS011;9585;51.018;4.282;2023-02-19T01:58:52;8.20;;;3.08;;
18905;SDS011;9585;51.018;4.282;2023-02-19T02:01:20;8.02;;;3.10;;
18905;SDS011;9585;51.018;4.282;2023-02-19T02:03:47;5.45;;;2.40;;
18905;SDS011;9585;51.018;4.282;2023-02-19T02:06:16;5.97;;;2.50;;
18905;SDS011;9585;51.018;4.282;2023-02-19T02:08:48;6.82;;;2.30;;
18905;SDS011;9585;51.018;4.282;2023-02-19T02:11:37;6.38;;;2.33;;
18905;SDS011;9585;51.018;4.282;2023-02-19T02:14:05;8.73;;;2.45;;
18905;SDS011;9585;51.018;4.282;2023-02-19T02:16:34;8.40;;;2.60;;
18905;SDS011;9585;51.018;4.282;2023-02-19T02:19:17;6.40;;;2.83;;
18905;SDS011;9585;51.018;4.282;2023-02-19T02:21:58;8.43;;;2.60;;
18905;SDS011;9585;51.018;4.282;2023-02-19T02:24:43;6.05;;;2.35;;
18905;SDS011;9585;51.018;4.282;2023-02-19T02:27:38;7.32;;;2.28;;
18905;SDS011;9585;51.018;4.282;2023-02-19T02:33:05;8.40;;;2.17;;
18905;SDS011;9585;51.018;4.282;2023-02-19T02:35:41;7.60;;;2.67;;
18905;SDS011;9585;51.018;4.282;2023-02-19T02:38:13;10.57;;;2.90;;
18905;SDS011;9585;51.018;4.282;2023-02-19T02:40:43;5.50;;;2.60;;
18905;SDS011;9585;51.018;4.282;2023-02-19T02:43:11;7.15;;;2.15;;
18905;SDS011;9585;51.018;4.282;2023-02-19T02:45:40;7.35;;;2.38;;
18905;SDS011;9585;51.018;4.282;2023-02-19T02:48:09;6.72;;;2.42;;
18905;SDS011;9585;51.018;4.282;2023-02-19T02:50:51;8.00;;;2.95;;
18905;SDS011;9585;51.018;4.282;2023-02-19T02:53:31;6.88;;;2.15;;
18905;SDS011;9585;51.018;4.282;2023-02-19T02:56:19;8.25;;;2.22;;
18905;SDS011;9585;51.018;4.282;2023-02-19T02:58:47;6.72;;;2.40;;
18905;SDS011;9585;51.018;4.282;2023-02-19T03:01:18;9.07;;;2.20;;
18905;SDS011;9585;51.018;4.282;2023-02-19T03:04:08;6.38;;;2.38;;
18905;SDS011;9585;51.018;4.282;2023-02-19T03:06:40;8.55;;;1.95;;
18905;SDS011;9585;51.018;4.282;2023-02-19T03:09:17;6.75;;;2.47;;
18905;SDS011;9585;51.018;4.282;2023-02-19T03:11:48;5.75;;;2.08;;
18905;SDS011;9585;51.018;4.282;2023-02-19T03:14:35;7.05;;;2.50;;
18905;SDS011;9585;51.018;4.282;2023-02-19T03:17:26;8.27;;;2.40;;
18905;SDS011;9585;51.018;4.282;2023-02-19T03:20:16;4.80;;;1.90;;
18905;SDS011;9585;51.018;4.282;2023-02-19T03:22:46;6.03;;;1.80;;
18905;SDS011;9585;51.018;4.282;2023-02-19T03:25:16;5.78;;;2.13;;
18905;SDS011;9585;51.018;4.282;2023-02-19T03:28:04;6.63;;;1.92;;
18905;SDS011;9585;51.018;4.282;2023-02-19T03:30:35;9.50;;;2.00;;
18905;SDS011;9585;51.018;4.282;2023-02-19T03:33:08;7.05;;;2.00;;
18905;SDS011;9585;51.018;4.282;2023-02-19T03:35:39;7.88;;;1.70;;
18905;SDS011;9585;51.018;4.282;2023-02-19T03:38:10;8.93;;;2.10;;
18905;SDS011;9585;51.018;4.282;2023-02-19T03:40:44;6.60;;;2.05;;
18905;SDS011;9585;51.018;4.282;2023-02-19T03:43:19;8.10;;;2.13;;
18905;SDS011;9585;51.018;4.282;2023-02-19T03:45:53;8.02;;;1.95;;
18905;SDS011;9585;51.018;4.282;2023-02-19T03:48:30;8.10;;;2.28;;
18905;SDS011;9585;51.018;4.282;2023-02-19T03:51:03;5.78;;;2.08;;
18905;SDS011;9585;51.018;4.282;2023-02-19T03:53:44;8.30;;;2.15;;
18905;SDS011;9585;51.018;4.282;2023-02-19T03:56:18;4.05;;;1.73;;
18905;SDS011;9585;51.018;4.282;2023-02-19T03:58:53;5.38;;;1.88;;
18905;SDS011;9585;51.018;4.282;2023-02-19T04:01:27;9.93;;;2.08;;
18905;SDS011;9585;51.018;4.282;2023-02-19T04:04:00;8.10;;;2.10;;
18905;SDS011;9585;51.018;4.282;2023-02-19T04:06:34;6.93;;;2.00;;
18905;SDS011;9585;51.018;4.282;2023-02-19T04:09:03;8.25;;;2.20;;
18905;SDS011;9585;51.018;4.282;2023-02-19T04:11:34;9.25;;;2.22;;
18905;SDS011;9585;51.018;4.282;2023-02-19T04:14:06;9.77;;;2.10;;
18905;SDS011;9585;51.018;4.282;2023-02-19T04:16:37;8.63;;;2.65;;
18905;SDS011;9585;51.018;4.282;2023-02-19T04:19:12;10.73;;;2.20;;
18905;SDS011;9585;51.018;4.282;2023-02-19T04:21:43;8.23;;;2.33;;
18905;SDS011;9585;51.018;4.282;2023-02-19T04:24:13;8.45;;;2.25;;
18905;SDS011;9585;51.018;4.282;2023-02-19T04:26:44;8.95;;;2.30;;
18905;SDS011;9585;51.018;4.282;2023-02-19T04:29:12;8.45;;;2.17;;
18905;SDS011;9585;51.018;4.282;2023-02-19T04:31:39;11.43;;;2.28;;
18905;SDS011;9585;51.018;4.282;2023-02-19T04:34:07;9.70;;;2.53;;
18905;SDS011;9585;51.018;4.282;2023-02-19T04:36:36;8.68;;;2.20;;
18905;SDS011;9585;51.018;4.282;2023-02-19T04:39:03;11.85;;;2.35;;
18905;SDS011;9585;51.018;4.282;2023-02-19T04:41:32;7.28;;;1.95;;
18905;SDS011;9585;51.018;4.282;2023-02-19T04:43:59;9.40;;;2.38;;
18905;SDS011;9585;51.018;4.282;2023-02-19T04:46:27;7.53;;;2.22;;
18905;SDS011;9585;51.018;4.282;2023-02-19T04:48:54;8.90;;;1.92;;
18905;SDS011;9585;51.018;4.282;2023-02-19T04:51:22;10.45;;;2.50;;
18905;SDS011;9585;51.018;4.282;2023-02-19T04:53:51;11.57;;;2.47;;
18905;SDS011;9585;51.018;4.282;2023-02-19T04:56:20;10.20;;;2.42;;
18905;SDS011;9585;51.018;4.282;2023-02-19T04:58:47;10.77;;;2.28;;
18905;SDS011;9585;51.018;4.282;2023-02-19T05:01:15;8.48;;;2.30;;
18905;SDS011;9585;51.018;4.282;2023-02-19T05:03:42;10.65;;;2.50;;
18905;SDS011;9585;51.018;4.282;2023-02-19T05:06:10;8.43;;;1.80;;
18905;SDS011;9585;51.018;4.282;2023-02-19T05:08:39;12.18;;;2.80;;
18905;SDS011;9585;51.018;4.282;2023-02-19T05:11:09;8.98;;;2.22;;
18905;SDS011;9585;51.018;4.282;2023-02-19T05:13:37;10.00;;;2.15;;
18905;SDS011;9585;51.018;4.282;2023-02-19T05:16:05;12.02;;;2.92;;
18905;SDS011;9585;51.018;4.282;2023-02-19T05:18:37;10.45;;;2.42;;
18905;SDS011;9585;51.018;4.282;2023-02-19T05:21:04;11.20;;;2.50;;
18905;SDS011;9585;51.018;4.282;2023-02-19T05:23:32;9.77;;;2.35;;
18905;SDS011;9585;51.018;4.282;2023-02-19T05:26:03;9.75;;;2.35;;
18905;SDS011;9585;51.018;4.282;2023-02-19T05:28:33;12.98;;;2.50;;
18905;SDS011;9585;51.018;4.282;2023-02-19T05:31:02;8.80;;;2.13;;
18905;SDS011;9585;51.018;4.282;2023-02-19T05:33:31;11.23;;;2.47;;
18905;SDS011;9585;51.018;4.282;2023-02-19T05:35:58;9.18;;;2.50;;
18905;SDS011;9585;51.018;4.282;2023-02-19T05:38:29;8.98;;;2.50;;
18905;SDS011;9585;51.018;4.282;2023-02-19T05:41:05;9.85;;;2.50;;
18905;SDS011;9585;51.018;4.282;2023-02-19T05:43:35;9.57;;;2.25;;
18905;SDS011;9585;51.018;4.282;2023-02-19T05:46:02;11.73;;;2.58;;
18905;SDS011;9585;51.018;4.282;2023-02-19T05:48:30;8.65;;;2.42;;
18905;SDS011;9585;51.018;4.282;2023-02-19T05:51:00;11.85;;;2.20;;
18905;SDS011;9585;51.018;4.282;2023-02-19T05:53:28;9.90;;;2.67;;
18905;SDS011;9585;51.018;4.282;2023-02-19T05:55:55;10.85;;;2.10;;
18905;SDS011;9585;51.018;4.282;2023-02-19T05:58:23;11.00;;;2.38;;
18905;SDS011;9585;51.018;4.282;2023-02-19T06:00:52;9.35;;;2.22;;
18905;SDS011;9585;51.018;4.282;2023-02-19T06:03:19;8.10;;;2.25;;
18905;SDS011;9585;51.018;4.282;2023-02-19T06:05:47;10.02;;;2.22;;
18905;SDS011;9585;51.018;4.282;2023-02-19T06:08:14;9.65;;;1.95;;
18905;SDS011;9585;51.018;4.282;2023-02-19T06:10:42;10.63;;;2.20;;
18905;SDS011;9585;51.018;4.282;2023-02-19T06:13:09;6.78;;;2.10;;
18905;SDS011;9585;51.018;4.282;2023-02-19T06:15:37;10.85;;;2.08;;
18905;SDS011;9585;51.018;4.282;2023-02-19T06:18:06;8.75;;;2.08;;
18905;SDS011;9585;51.018;4.282;2023-02-19T06:20:33;9.18;;;1.90;;
18905;SDS011;9585;51.018;4.282;2023-02-19T06:23:00;9.02;;;2.25;;
18905;SDS011;9585;51.018;4.282;2023-02-19T06:25:28;9.82;;;2.00;;
18905;SDS011;9585;51.018;4.282;2023-02-19T06:27:55;6.30;;;1.90;;
18905;SDS011;9585;51.018;4.282;2023-02-19T06:30:22;10.48;;;2.45;;
18905;SDS011;9585;51.018;4.282;2023-02-19T06:32:50;6.72;;;2.17;;
18905;SDS011;9585;51.018;4.282;2023-02-19T06:35:20;6.35;;;1.65;;
18905;SDS011;9585;51.018;4.282;2023-02-19T06:37:47;10.00;;;2.17;;
18905;SDS011;9585;51.018;4.282;2023-02-19T06:40:15;7.25;;;2.22;;
18905;SDS011;9585;51.018;4.282;2023-02-19T06:42:42;6.68;;;1.95;;
18905;SDS011;9585;51.018;4.282;2023-02-19T06:45:09;8.63;;;1.92;;
18905;SDS011;9585;51.018;4.282;2023-02-19T06:47:52;10.38;;;2.20;;
18905;SDS011;9585;51.018;4.282;2023-02-19T06:50:21;8.20;;;2.25;;
18905;SDS011;9585;51.018;4.282;2023-02-19T06:52:48;11.35;;;2.20;;
18905;SDS011;9585;51.018;4.282;2023-02-19T06:55:15;11.27;;;2.58;;
18905;SDS011;9585;51.018;4.282;2023-02-19T06:57:43;8.23;;;2.08;;
18905;SDS011;9585;51.018;4.282;2023-02-19T07:00:10;9.65;;;2.22;;
18905;SDS011;9585;51.018;4.282;2023-02-19T07:02:38;8.95;;;1.85;;
18905;SDS011;9585;51.018;4.282;2023-02-19T07:05:05;8.10;;;1.83;;
18905;SDS011;9585;51.018;4.282;2023-02-19T07:07:34;5.43;;;1.73;;
18905;SDS011;9585;51.018;4.282;2023-02-19T07:10:02;8.85;;;2.20;;
18905;SDS011;9585;51.018;4.282;2023-02-19T07:12:29;9.48;;;2.05;;
18905;SDS011;9585;51.018;4.282;2023-02-19T07:14:57;11.70;;;2.10;;
18905;SDS011;9585;51.018;4.282;2023-02-19T07:17:24;7.38;;;2.30;;
18905;SDS011;9585;51.018;4.282;2023-02-19T07:19:51;11.40;;;2.70;;
18905;SDS011;9585;51.018;4.282;2023-02-19T07:22:18;7.25;;;2.08;;
18905;SDS011;9585;51.018;4.282;2023-02-19T07:24:47;6.63;;;1.80;;
18905;SDS011;9585;51.018;4.282;2023-02-19T07:27:14;10.73;;;2.58;;
18905;SDS011;9585;51.018;4.282;2023-02-19T07:29:45;7.07;;;2.10;;
18905;SDS011;9585;51.018;4.282;2023-02-19T07:32:12;7.13;;;1.60;;
18905;SDS011;9585;51.018;4.282;2023-02-19T07:34:39;8.60;;;2.13;;
18905;SDS011;9585;51.018;4.282;2023-02-19T07:37:07;10.70;;;1.90;;
18905;SDS011;9585;51.018;4.282;2023-02-19T07:39:34;8.77;;;2.08;;
18905;SDS011;9585;51.018;4.282;2023-02-19T07:42:03;7.57;;;1.70;;
18905;SDS011;9585;51.018;4.282;2023-02-19T07:44:30;8.77;;;2.10;;
18905;SDS011;9585;51.018;4.282;2023-02-19T07:46:58;11.73;;;2.17;;
18905;SDS011;9585;51.018;4.282;2023-02-19T07:49:25;7.57;;;1.85;;
18905;SDS011;9585;51.018;4.282;2023-02-19T07:51:52;8.07;;;2.05;;
18905;SDS011;9585;51.018;4.282;2023-02-19T07:54:20;7.65;;;2.20;;
18905;SDS011;9585;51.018;4.282;2023-02-19T07:56:47;7.70;;;2.03;;
18905;SDS011;9585;51.018;4.282;2023-02-19T07:59:16;6.50;;;2.33;;
18905;SDS011;9585;51.018;4.282;2023-02-19T08:01:45;9.73;;;2.25;;
18905;SDS011;9585;51.018;4.282;2023-02-19T08:04:30;9.10;;;2.33;;
18905;SDS011;9585;51.018;4.282;2023-02-19T08:06:57;8.68;;;2.25;;
18905;SDS011;9585;51.018;4.282;2023-02-19T08:09:24;7.45;;;2.10;;
18905;SDS011;9585;51.018;4.282;2023-02-19T08:11:51;8.23;;;2.17;;
18905;SDS011;9585;51.018;4.282;2023-02-19T08:14:38;5.93;;;2.00;;
18905;SDS011;9585;51.018;4.282;2023-02-19T08:17:05;7.15;;;2.00;;
18905;SDS011;9585;51.018;4.282;2023-02-19T08:19:32;10.48;;;2.33;;
18905;SDS011;9585;51.018;4.282;2023-02-19T08:21:59;6.47;;;1.80;;
18905;SDS011;9585;51.018;4.282;2023-02-19T08:24:26;8.13;;;2.00;;
18905;SDS011;9585;51.018;4.282;2023-02-19T08:26:55;7.97;;;3.00;;
18905;SDS011;9585;51.018;4.282;2023-02-19T08:29:22;10.82;;;6.28;;
18905;SDS011;9585;51.018;4.282;2023-02-19T08:31:51;8.45;;;1.90;;
18905;SDS011;9585;51.018;4.282;2023-02-19T08:34:18;9.00;;;1.85;;
18905;SDS011;9585;51.018;4.282;2023-02-19T08:36:45;8.35;;;2.17;;
18905;SDS011;9585;51.018;4.282;2023-02-19T08:39:13;8.88;;;2.05;;
18905;SDS011;9585;51.018;4.282;2023-02-19T08:41:40;5.97;;;1.88;;
18905;SDS011;9585;51.018;4.282;2023-02-19T08:44:07;7.53;;;2.25;;
18905;SDS011;9585;51.018;4.282;2023-02-19T08:46:34;4.72;;;1.83;;
18905;SDS011;9585;51.018;4.282;2023-02-19T08:49:03;6.78;;;1.92;;
18905;SDS011;9585;51.018;4.282;2023-02-19T08:51:30;8.40;;;2.15;;
18905;SDS011;9585;51.018;4.282;2023-02-19T08:53:58;11.05;;;3.47;;
18905;SDS011;9585;51.018;4.282;2023-02-19T08:56:28;10.30;;;2.00;;
18905;SDS011;9585;51.018;4.282;2023-02-19T08:58:55;7.35;;;2.35;;
18905;SDS011;9585;51.018;4.282;2023-02-19T09:01:23;8.65;;;2.20;;
18905;SDS011;9585;51.018;4.282;2023-02-19T09:03:50;9.00;;;2.42;;
18905;SDS011;9585;51.018;4.282;2023-02-19T09:06:20;11.55;;;2.25;;
18905;SDS011;9585;51.018;4.282;2023-02-19T09:08:47;8.05;;;2.08;;
18905;SDS011;9585;51.018;4.282;2023-02-19T09:11:15;7.75;;;2.35;;
18905;SDS011;9585;51.018;4.282;2023-02-19T09:13:43;7.60;;;1.75;;
18905;SDS011;9585;51.018;4.282;2023-02-19T09:16:10;7.07;;;1.83;;
18905;SDS011;9585;51.018;4.282;2023-02-19T09:18:37;6.55;;;1.63;;
18905;SDS011;9585;51.018;4.282;2023-02-19T09:21:05;4.90;;;1.92;;
18905;SDS011;9585;51.018;4.282;2023-02-19T09:23:34;7.38;;;2.22;;
18905;SDS011;9585;51.018;4.282;2023-02-19T09:26:03;8.23;;;1.80;;
18905;SDS011;9585;51.018;4.282;2023-02-19T09:28:34;9.40;;;2.50;;
18905;SDS011;9585;51.018;4.282;2023-02-19T09:31:03;6.68;;;2.70;;
18905;SDS011;9585;51.018;4.282;2023-02-19T09:33:31;7.13;;;2.22;;
18905;SDS011;9585;51.018;4.282;2023-02-19T09:35:59;6.47;;;2.20;;
18905;SDS011;9585;51.018;4.282;2023-02-19T09:38:27;6.78;;;2.17;;
18905;SDS011;9585;51.018;4.282;2023-02-19T09:40:56;7.80;;;1.85;;
18905;SDS011;9585;51.018;4.282;2023-02-19T09:43:26;4.18;;;1.90;;
18905;SDS011;9585;51.018;4.282;2023-02-19T09:45:57;9.00;;;2.20;;
18905;SDS011;9585;51.018;4.282;2023-02-19T09:48:28;6.13;;;1.90;;
18905;SDS011;9585;51.018;4.282;2023-02-19T09:50:56;6.72;;;2.05;;
18905;SDS011;9585;51.018;4.282;2023-02-19T09:53:27;6.15;;;1.92;;
18905;SDS011;9585;51.018;4.282;2023-02-19T09:56:08;7.97;;;2.22;;
18905;SDS011;9585;51.018;4.282;2023-02-19T09:58:38;6.45;;;2.20;;
18905;SDS011;9585;51.018;4.282;2023-02-19T10:01:11;6.05;;;2.05;;
18905;SDS011;9585;51.018;4.282;2023-02-19T10:03:39;5.63;;;1.70;;
18905;SDS011;9585;51.018;4.282;2023-02-19T10:06:13;4.90;;;1.95;;
18905;SDS011;9585;51.018;4.282;2023-02-19T10:08:47;8.75;;;2.03;;
18905;SDS011;9585;51.018;4.282;2023-02-19T10:11:17;6.55;;;2.08;;
18905;SDS011;9585;51.018;4.282;2023-02-19T10:13:46;6.43;;;1.95;;
18905;SDS011;9585;51.018;4.282;2023-02-19T10:16:16;6.70;;;1.80;;
18905;SDS011;9585;51.018;4.282;2023-02-19T10:18:48;7.82;;;2.13;;
18905;SDS011;9585;51.018;4.282;2023-02-19T10:21:16;6.53;;;1.90;;
18905;SDS011;9585;51.018;4.282;2023-02-19T10:23:48;7.97;;;2.20;;
18905;SDS011;9585;51.018;4.282;2023-02-19T10:26:19;8.07;;;2.55;;
18905;SDS011;9585;51.018;4.282;2023-02-19T10:28:48;6.15;;;1.90;;
18905;SDS011;9585;51.018;4.282;2023-02-19T10:31:16;7.65;;;2.20;;
18905;SDS011;9585;51.018;4.282;2023-02-19T10:33:48;6.10;;;2.35;;
18905;SDS011;9585;51.018;4.282;2023-02-19T10:36:35;8.55;;;2.42;;
18905;SDS011;9585;51.018;4.282;2023-02-19T10:39:28;8.35;;;2.72;;
18905;SDS011;9585;51.018;4.282;2023-02-19T10:42:14;6.13;;;2.20;;
18905;SDS011;9585;51.018;4.282;2023-02-19T10:44:43;5.88;;;2.30;;
18905;SDS011;9585;51.018;4.282;2023-02-19T10:47:16;6.72;;;2.60;;
18905;SDS011;9585;51.018;4.282;2023-02-19T10:49:45;7.80;;;3.05;;
18905;SDS011;9585;51.018;4.282;2023-02-19T10:52:16;7.18;;;2.70;;
18905;SDS011;9585;51.018;4.282;2023-02-19T10:54:48;8.00;;;2.50;;
18905;SDS011;9585;51.018;4.282;2023-02-19T10:57:23;7.70;;;2.30;;
18905;SDS011;9585;51.018;4.282;2023-02-19T10:59:57;7.90;;;2.10;;
18905;SDS011;9585;51.018;4.282;2023-02-19T11:02:27;4.60;;;2.35;;
18905;SDS011;9585;51.018;4.282;2023-02-19T11:05:02;6.28;;;2.47;;
18905;SDS011;9585;51.018;4.282;2023-02-19T11:07:46;5.45;;;2.60;;
18905;SDS011;9585;51.018;4.282;2023-02-19T11:10:25;7.63;;;3.30;;
18905;SDS011;9585;51.018;4.282;2023-02-19T11:12:56;6.45;;;2.53;;
18905;SDS011;9585;51.018;4.282;2023-02-19T11:15:27;11.38;;;2.60;;
18905;SDS011;9585;51.018;4.282;2023-02-19T11:17:58;10.23;;;2.70;;
18905;SDS011;9585;51.018;4.282;2023-02-19T11:20:27;9.30;;;2.95;;
18905;SDS011;9585;51.018;4.282;2023-02-19T11:22:56;7.35;;;2.90;;
18905;SDS011;9585;51.018;4.282;2023-02-19T11:25:28;7.80;;;3.75;;
18905;SDS011;9585;51.018;4.282;2023-02-19T11:27:59;7.05;;;4.60;;
18905;SDS011;9585;51.018;4.282;2023-02-19T11:30:35;9.25;;;6.00;;
18905;SDS011;9585;51.018;4.282;2023-02-19T11:39:11;11.05;;;6.90;;
18905;SDS011;9585;51.018;4.282;2023-02-19T11:41:54;9.57;;;6.30;;
18905;SDS011;9585;51.018;4.282;2023-02-19T11:44:46;10.45;;;6.30;;
18905;SDS011;9585;51.018;4.282;2023-02-19T11:50:45;9.88;;;5.57;;
18905;SDS011;9585;51.018;4.282;2023-02-19T11:53:21;9.15;;;5.53;;
18905;SDS011;9585;51.018;4.282;2023-02-19T11:56:01;12.48;;;5.32;;
18905;SDS011;9585;51.018;4.282;2023-02-19T11:58:42;9.50;;;5.05;;
18905;SDS011;9585;51.018;4.282;2023-02-19T12:01:33;7.28;;;4.53;;
18905;SDS011;9585;51.018;4.282;2023-02-19T12:04:16;9.73;;;5.22;;
18905;SDS011;9585;51.018;4.282;2023-02-19T12:07:13;9.10;;;4.50;;
18905;SDS011;9585;51.018;4.282;2023-02-19T12:09:57;7.28;;;4.22;;
18905;SDS011;9585;51.018;4.282;2023-02-19T12:12:42;9.70;;;3.97;;
18905;SDS011;9585;51.018;4.282;2023-02-19T12:15:23;7.40;;;4.10;;
18905;SDS011;9585;51.018;4.282;2023-02-19T12:18:06;8.50;;;4.07;;
18905;SDS011;9585;51.018;4.282;2023-02-19T12:21:01;6.82;;;3.20;;
18905;SDS011;9585;51.018;4.282;2023-02-19T12:26:51;5.90;;;2.83;;
18905;SDS011;9585;51.018;4.282;2023-02-19T12:29:36;7.63;;;2.53;;
18905;SDS011;9585;51.018;4.282;2023-02-19T12:32:38;3.15;;;2.45;;
18905;SDS011;9585;51.018;4.282;2023-02-19T12:35:28;7.82;;;4.53;;
18905;SDS011;9585;51.018;4.282;2023-02-19T12:38:10;7.70;;;4.90;;
18905;SDS011;9585;51.018;4.282;2023-02-19T12:40:49;8.52;;;5.18;;
18905;SDS011;9585;51.018;4.282;2023-02-19T12:43:25;9.07;;;5.50;;
18905;SDS011;9585;51.018;4.282;2023-02-19T12:46:02;7.50;;;5.45;;
18905;SDS011;9585;51.018;4.282;2023-02-19T12:48:44;7.72;;;4.88;;
18905;SDS011;9585;51.018;4.282;2023-02-19T12:51:22;7.35;;;5.28;;
18905;SDS011;9585;51.018;4.282;2023-02-19T12:53:55;7.75;;;4.90;;
18905;SDS011;9585;51.018;4.282;2023-02-19T12:56:27;8.65;;;4.45;;
18905;SDS011;9585;51.018;4.282;2023-02-19T12:58:59;10.00;;;4.97;;
18905;SDS011;9585;51.018;4.282;2023-02-19T13:01:30;7.50;;;4.10;;
18905;SDS011;9585;51.018;4.282;2023-02-19T13:04:07;4.88;;;2.70;;
18905;SDS011;9585;51.018;4.282;2023-02-19T13:06:51;2.92;;;2.17;;
18905;SDS011;9585;51.018;4.282;2023-02-19T13:09:24;3.42;;;2.00;;
18905;SDS011;9585;51.018;4.282;2023-02-19T13:12:01;4.47;;;2.20;;
18905;SDS011;9585;51.018;4.282;2023-02-19T13:14:35;4.05;;;2.13;;
18905;SDS011;9585;51.018;4.282;2023-02-19T13:17:07;2.65;;;2.42;;
18905;SDS011;9585;51.018;4.282;2023-02-19T13:19:45;5.15;;;2.65;;
18905;SDS011;9585;51.018;4.282;2023-02-19T13:22:21;5.10;;;2.45;;
18905;SDS011;9585;51.018;4.282;2023-02-19T13:25:12;3.30;;;2.20;;
18905;SDS011;9585;51.018;4.282;2023-02-19T13:27:56;2.10;;;1.90;;
18905;SDS011;9585;51.018;4.282;2023-02-19T13:30:37;4.28;;;2.50;;
18905;SDS011;9585;51.018;4.282;2023-02-19T13:33:17;4.68;;;2.42;;
18905;SDS011;9585;51.018;4.282;2023-02-19T13:36:05;2.83;;;2.38;;
18905;SDS011;9585;51.018;4.282;2023-02-19T13:38:40;4.40;;;2.03;;
18905;SDS011;9585;51.018;4.282;2023-02-19T13:41:16;4.43;;;2.05;;
18905;SDS011;9585;51.018;4.282;2023-02-19T13:43:52;3.45;;;1.92;;
18905;SDS011;9585;51.018;4.282;2023-02-19T13:46:21;3.47;;;1.80;;
18905;SDS011;9585;51.018;4.282;2023-02-19T13:51:55;3.72;;;1.70;;
18905;SDS011;9585;51.018;4.282;2023-02-19T13:54:27;3.90;;;2.40;;
18905;SDS011;9585;51.018;4.282;2023-02-19T13:57:22;4.95;;;2.60;;
18905;SDS011;9585;51.018;4.282;2023-02-19T13:59:53;5.90;;;2.65;;
18905;SDS011;9585;51.018;4.282;2023-02-19T14:02:26;5.25;;;2.45;;
18905;SDS011;9585;51.018;4.282;2023-02-19T14:04:58;3.70;;;2.55;;
18905;SDS011;9585;51.018;4.282;2023-02-19T14:25:38;3.85;;;2.50;;
18905;SDS011;9585;51.018;4.282;2023-02-19T14:28:19;4.93;;;1.98;;
18905;SDS011;9585;51.018;4.282;2023-02-19T14:30:54;4.10;;;2.13;;
18905;SDS011;9585;51.018;4.282;2023-02-19T14:33:30;3.15;;;1.90;;
18905;SDS011;9585;51.018;4.282;2023-02-19T14:36:02;4.00;;;2.20;;
18905;SDS011;9585;51.018;4.282;2023-02-19T14:38:36;3.90;;;2.10;;
18905;SDS011;9585;51.018;4.282;2023-02-19T14:41:10;2.42;;;1.60;;
18905;SDS011;9585;51.018;4.282;2023-02-19T14:43:41;2.38;;;1.70;;
18905;SDS011;9585;51.018;4.282;2023-02-19T14:46:14;3.15;;;1.83;;
18905;SDS011;9585;51.018;4.282;2023-02-19T14:48:50;2.92;;;2.05;;
18905;SDS011;9585;51.018;4.282;2023-02-19T14:51:24;3.95;;;1.38;;
18905;SDS011;9585;51.018;4.282;2023-02-19T14:53:56;3.05;;;1.88;;
18905;SDS011;9585;51.018;4.282;2023-02-19T14:56:27;3.03;;;1.30;;
18905;SDS011;9585;51.018;4.282;2023-02-19T15:01:53;2.83;;;1.83;;
18905;SDS011;9585;51.018;4.282;2023-02-19T15:04:22;3.67;;;1.52;;
18905;SDS011;9585;51.018;4.282;2023-02-19T15:06:50;2.53;;;1.70;;
18905;SDS011;9585;51.018;4.282;2023-02-19T15:09:22;2.92;;;1.90;;
18905;SDS011;9585;51.018;4.282;2023-02-19T15:11:55;3.15;;;1.80;;
18905;SDS011;9585;51.018;4.282;2023-02-19T15:14:22;2.83;;;1.95;;
18905;SDS011;9585;51.018;4.282;2023-02-19T15:16:56;2.97;;;2.10;;
18905;SDS011;9585;51.018;4.282;2023-02-19T15:19:25;3.88;;;1.80;;
18905;SDS011;9585;51.018;4.282;2023-02-19T15:21:53;2.75;;;1.70;;
18905;SDS011;9585;51.018;4.282;2023-02-19T15:24:21;2.35;;;1.70;;
18905;SDS011;9585;51.018;4.282;2023-02-19T15:26:49;2.30;;;2.10;;
18905;SDS011;9585;51.018;4.282;2023-02-19T15:29:24;4.00;;;2.30;;
18905;SDS011;9585;51.018;4.282;2023-02-19T15:31:54;3.60;;;2.30;;
18905;SDS011;9585;51.018;4.282;2023-02-19T15:34:24;3.20;;;2.10;;
18905;SDS011;9585;51.018;4.282;2023-02-19T15:36:54;2.60;;;1.95;;
18905;SDS011;9585;51.018;4.282;2023-02-19T15:39:24;1.90;;;1.80;;
18905;SDS011;9585;51.018;4.282;2023-02-19T15:41:55;2.92;;;1.98;;
18905;SDS011;9585;51.018;4.282;2023-02-19T15:44:30;1.90;;;1.60;;
18905;SDS011;9585;51.018;4.282;2023-02-19T15:47:05;2.67;;;1.67;;
18905;SDS011;9585;51.018;4.282;2023-02-19T15:49:41;2.63;;;1.67;;
18905;SDS011;9585;51.018;4.282;2023-02-19T15:52:20;4.50;;;2.10;;
18905;SDS011;9585;51.018;4.282;2023-02-19T15:54:56;2.10;;;1.90;;
18905;SDS011;9585;51.018;4.282;2023-02-19T15:57:29;3.38;;;1.90;;
18905;SDS011;9585;51.018;4.282;2023-02-19T16:00:04;2.58;;;2.00;;
18905;SDS011;9585;51.018;4.282;2023-02-19T16:02:38;2.88;;;2.13;;
18905;SDS011;9585;51.018;4.282;2023-02-19T16:05:10;2.70;;;1.90;;
18905;SDS011;9585;51.018;4.282;2023-02-19T16:07:40;3.25;;;2.05;;
18905;SDS011;9585;51.018;4.282;2023-02-19T16:12:57;3.58;;;2.20;;
18905;SDS011;9585;51.018;4.282;2023-02-19T16:15:29;4.28;;;2.33;;
18905;SDS011;9585;51.018;4.282;2023-02-19T16:17:58;4.88;;;2.40;;
18905;SDS011;9585;51.018;4.282;2023-02-19T16:20:27;4.32;;;2.20;;
18905;SDS011;9585;51.018;4.282;2023-02-19T16:22:56;4.25;;;2.47;;